createdAt,value
2023-09-10T05:18:46.881Z,79.48
2023-09-10T05:21:16.300Z,78.92
2023-09-10T05:23:43.140Z,76.96
2023-09-10T05:26:10.994Z,75.19
2023-09-10T05:28:39.753Z,75.36
2023-09-10T05:31:09.021Z,73.65
2023-09-10T05:33:39.693Z,78.87
2023-09-10T05:36:09.422Z,79.05
2023-09-10T05:38:38.917Z,75.55
2023-09-10T05:41:08.639Z,71.90
2023-09-10T05:43:37.124Z,69.74
2023-09-10T05:46:07.315Z,70.15
2023-09-10T05:48:36.121Z,71.06
2023-09-10T05:51:04.617Z,71.69
2023-09-10T05:53:32.572Z,77.82
2023-09-10T05:56:04.835Z,78.95
2023-09-10T05:58:33.811Z,78.95
2023-09-10T06:01:04.158Z,79.06
2023-09-10T06:03:35.126Z,80.49
2023-09-10T06:06:03.476Z,78.56
2023-09-10T06:08:33.711Z,75.44
2023-09-10T06:11:04.261Z,71.67
2023-09-10T06:13:33.017Z,69.18
2023-09-10T06:16:03.839Z,67.68
2023-09-10T06:18:32.629Z,66.34
2023-09-10T06:21:00.716Z,65.21
2023-09-10T06:23:28.973Z,64.79
2023-09-10T06:25:57.359Z,68.60
2023-09-10T06:28:27.197Z,72.86
2023-09-10T06:30:55.360Z,77.29
2023-09-10T06:33:23.390Z,78.12
2023-09-10T06:35:51.689Z,75.59
2023-09-10T06:38:19.897Z,73.50
2023-09-10T06:40:49.645Z,74.84
2023-09-10T06:43:17.593Z,71.18
2023-09-10T06:46:08.894Z,68.78
2023-09-10T06:48:36.804Z,67.44
2023-09-10T06:51:05.009Z,69.27
2023-09-10T06:53:32.960Z,69.92
2023-09-10T06:56:00.807Z,72.09
2023-09-10T06:58:28.640Z,68.89
2023-09-10T07:00:58.896Z,66.12
2023-09-10T07:03:28.078Z,66.96
2023-09-10T07:05:55.899Z,65.11
2023-09-10T07:08:23.790Z,63.68
2023-09-10T07:10:51.711Z,64.49
2023-09-10T07:13:19.540Z,66.30
2023-09-10T07:15:47.462Z,64.10
2023-09-10T07:18:15.347Z,63.16
2023-09-10T07:20:44.576Z,61.49
2023-09-10T07:23:12.423Z,63.09
2023-09-10T07:25:40.707Z,60.31
2023-09-10T07:28:08.678Z,58.42
2023-09-10T07:30:38.623Z,57.48
2023-09-10T07:33:06.664Z,56.29
2023-09-10T07:35:34.513Z,58.62
2023-09-10T07:38:03.732Z,55.74
2023-09-10T07:40:31.702Z,54.82
2023-09-10T07:43:00.673Z,53.29
2023-09-10T07:45:28.718Z,60.29
2023-09-10T07:47:57.964Z,56.48
2023-09-10T07:50:26.331Z,54.81
2023-09-10T07:52:54.220Z,54.08
2023-09-10T07:55:26.411Z,50.01
2023-09-10T07:57:54.265Z,48.72
2023-09-10T08:00:22.407Z,45.64
2023-09-10T08:02:50.316Z,47.23
2023-09-10T08:05:19.110Z,45.80
2023-09-10T08:07:47.360Z,47.46
2023-09-10T08:10:15.188Z,45.66
2023-09-10T08:12:44.325Z,47.30
2023-09-10T08:15:12.460Z,43.74
2023-09-10T08:17:42.495Z,41.85
2023-09-10T08:20:11.259Z,43.83
2023-09-10T08:22:39.116Z,42.98
2023-09-10T08:25:09.440Z,41.26
2023-09-10T08:27:37.535Z,40.51
2023-09-10T08:30:08.993Z,40.12
2023-09-10T08:32:37.813Z,40.19
2023-09-10T08:35:06.660Z,38.25
2023-09-10T08:37:36.797Z,39.03
2023-09-10T08:40:05.503Z,38.29
2023-09-10T08:42:41.081Z,39.62
2023-09-10T08:45:12.380Z,38.62
2023-09-10T08:47:42.039Z,37.82
2023-09-10T08:50:11.642Z,39.34
2023-09-10T08:52:40.983Z,37.84
2023-09-10T08:55:10.797Z,39.54
2023-09-10T08:57:39.803Z,42.28
2023-09-10T09:00:13.368Z,42.85
2023-09-10T09:02:42.201Z,40.98
2023-09-10T09:05:10.582Z,42.35
2023-09-10T09:07:47.205Z,38.58
2023-09-10T09:10:20.098Z,39.37
2023-09-10T09:12:50.872Z,37.33
2023-09-10T09:15:23.027Z,37.60
2023-09-10T09:17:55.401Z,39.43
2023-09-10T09:20:25.450Z,37.39
2023-09-10T09:22:59.409Z,38.04
2023-09-10T09:25:27.599Z,41.37
2023-09-10T09:27:58.102Z,44.76
2023-09-10T09:30:28.120Z,44.44
2023-09-10T09:32:59.304Z,43.11
2023-09-10T09:35:27.492Z,43.19
2023-09-10T09:37:55.768Z,41.90
2023-09-10T09:40:24.653Z,40.85
2023-09-10T09:43:19.476Z,38.61
2023-09-10T09:46:06.697Z,41.10
2023-09-10T09:52:00.877Z,37.81
2023-09-10T09:54:29.589Z,37.50
2023-09-10T09:57:15.457Z,36.68
2023-09-10T09:59:44.097Z,36.18
2023-09-10T10:02:16.517Z,37.53
2023-09-10T10:04:45.505Z,36.84
2023-09-10T10:09:49.710Z,36.89
2023-09-10T10:12:18.403Z,37.60
2023-09-10T10:14:50.586Z,38.19
2023-09-10T10:17:25.431Z,42.16
2023-09-10T10:19:54.208Z,40.55
2023-09-10T10:22:24.340Z,41.42
2023-09-10T10:24:52.869Z,40.26
2023-09-10T10:27:23.924Z,40.67
2023-09-10T10:29:53.951Z,44.53
2023-09-10T10:32:28.880Z,39.52
2023-09-10T10:34:59.959Z,42.36
2023-09-10T10:37:38.261Z,42.67
2023-09-10T10:40:10.842Z,42.54
2023-09-10T10:42:47.823Z,40.26
2023-09-10T10:45:18.382Z,38.81
2023-09-10T10:47:49.636Z,40.75
2023-09-10T10:50:26.740Z,36.92
2023-09-10T10:53:00.651Z,37.69
2023-09-10T10:55:29.144Z,38.85
2023-09-10T10:57:57.805Z,37.80
2023-09-10T11:00:26.362Z,37.30
2023-09-10T11:06:10.209Z,34.46
2023-09-10T11:08:47.306Z,37.22
2023-09-10T11:15:11.727Z,37.16
2023-09-10T11:17:58.279Z,38.56
2023-09-10T11:20:55.089Z,37.72
2023-09-10T11:23:24.312Z,36.28
2023-09-10T11:25:54.423Z,36.00
2023-09-10T11:28:58.747Z,35.95
2023-09-10T11:32:15.400Z,34.01
2023-09-10T11:34:51.295Z,34.57
2023-09-10T11:37:27.133Z,38.61
2023-09-10T11:40:05.676Z,37.32
2023-09-10T11:42:38.843Z,35.26
2023-09-10T11:45:10.805Z,35.96
2023-09-10T11:47:46.950Z,36.08
2023-09-10T11:50:22.906Z,37.37
2023-09-10T11:52:50.977Z,37.66
2023-09-10T11:55:20.580Z,35.24
2023-09-10T11:57:48.451Z,34.23
2023-09-10T12:00:17.795Z,32.21
2023-09-10T12:02:45.920Z,34.80
2023-09-10T12:05:13.925Z,36.62
2023-09-10T12:07:45.227Z,36.24
2023-09-10T12:10:14.830Z,35.69
2023-09-10T12:12:48.234Z,33.20
2023-09-10T12:15:16.563Z,35.06
2023-09-10T12:17:44.929Z,33.67
2023-09-10T12:20:14.273Z,33.91
2023-09-10T12:22:42.234Z,35.20
2023-09-10T12:25:10.882Z,32.71
2023-09-10T12:27:39.038Z,33.55
2023-09-10T12:30:09.553Z,34.48
2023-09-10T12:32:40.712Z,33.32
2023-09-10T12:35:09.252Z,31.85
2023-09-10T12:37:37.096Z,32.44
2023-09-10T12:40:06.253Z,34.32
2023-09-10T12:42:34.854Z,32.99
2023-09-10T12:45:03.393Z,31.53
2023-09-10T12:47:32.765Z,33.48
2023-09-10T12:50:01.281Z,32.23
2023-09-10T12:52:29.270Z,31.03
2023-09-10T12:54:57.128Z,31.81
2023-09-10T12:57:24.935Z,31.13
2023-09-10T12:59:54.686Z,30.93
2023-09-10T13:02:24.232Z,34.68
2023-09-10T13:04:55.670Z,32.50
2023-09-10T13:07:26.148Z,32.78
2023-09-10T13:09:54.304Z,33.34
2023-09-10T13:12:22.971Z,31.78
2023-09-10T13:14:50.727Z,31.82
2023-09-10T13:17:19.655Z,30.78
2023-09-10T13:19:48.015Z,34.16
2023-09-10T13:22:17.224Z,33.51
2023-09-10T13:24:45.031Z,33.37
2023-09-10T13:27:13.487Z,31.40
2023-09-10T13:29:41.550Z,31.02
2023-09-10T13:32:09.536Z,33.44
2023-09-10T13:34:37.400Z,34.07
2023-09-10T13:37:05.699Z,32.13
2023-09-10T13:39:35.591Z,32.55
2023-09-10T13:42:04.099Z,33.91
2023-09-10T13:44:32.486Z,31.41
2023-09-10T13:47:00.332Z,32.28
2023-09-10T13:49:28.389Z,33.38
2023-09-10T13:51:56.328Z,31.91
2023-09-10T13:54:24.085Z,35.08
2023-09-10T13:56:53.236Z,34.68
2023-09-10T13:59:21.140Z,34.27
2023-09-10T14:01:49.825Z,32.97
2023-09-10T14:04:17.814Z,34.37
2023-09-10T14:06:45.603Z,33.50
2023-09-10T14:09:13.800Z,33.65
2023-09-10T14:11:41.608Z,33.37
2023-09-10T14:14:10.797Z,33.68
2023-09-10T14:16:38.890Z,34.64
2023-09-10T14:19:06.724Z,33.88
2023-09-10T14:21:35.608Z,34.00
2023-09-10T14:24:04.048Z,33.20
2023-09-10T14:26:32.054Z,34.06
2023-09-10T14:29:00.095Z,32.80
2023-09-10T14:31:29.374Z,33.21
2023-09-10T14:33:57.383Z,34.91
2023-09-10T14:36:25.304Z,33.11
2023-09-10T14:38:53.526Z,33.26
2023-09-10T14:41:21.760Z,31.83
2023-09-10T14:43:49.742Z,33.54
2023-09-10T14:46:17.632Z,33.87
2023-09-10T14:48:48.038Z,32.99
2023-09-10T14:51:15.837Z,33.72
2023-09-10T14:53:45.794Z,33.93
2023-09-10T14:56:13.686Z,33.15
2023-09-10T14:58:41.530Z,33.45
2023-09-10T15:01:09.399Z,31.99
2023-09-10T15:03:37.262Z,33.40
2023-09-10T15:06:07.714Z,32.10
2023-09-10T15:08:35.774Z,31.73
2023-09-10T15:11:03.804Z,34.55
2023-09-10T15:13:33.932Z,34.11
2023-09-10T15:16:04.170Z,34.24
2023-09-10T15:18:32.069Z,34.92
2023-09-10T15:21:02.501Z,34.19
2023-09-10T15:23:34.069Z,33.89
2023-09-10T15:26:01.966Z,32.64
2023-09-10T15:28:29.816Z,35.50
2023-09-10T15:30:58.185Z,35.09
2023-09-10T15:33:25.967Z,34.28
2023-09-10T15:35:53.916Z,33.10
2023-09-10T15:38:21.752Z,35.40
2023-09-10T15:40:55.906Z,36.53
2023-09-10T15:43:24.001Z,35.24
2023-09-10T15:45:54.654Z,35.75
2023-09-10T15:48:23.070Z,36.00
2023-09-10T15:50:51.311Z,37.01
2023-09-10T15:53:19.316Z,36.51
2023-09-10T15:55:47.409Z,36.18
2023-09-10T15:58:17.224Z,36.17
2023-09-10T16:00:45.225Z,37.07
2023-09-10T16:03:13.400Z,35.76
2023-09-10T16:05:43.236Z,36.14
2023-09-10T16:08:11.342Z,34.64
2023-09-10T16:10:39.712Z,34.51
2023-09-10T16:13:07.793Z,35.50
2023-09-10T16:15:37.011Z,36.37
2023-09-10T16:18:07.361Z,35.58
2023-09-10T16:20:35.393Z,36.60
2023-09-10T16:23:03.518Z,37.07
2023-09-10T16:25:31.518Z,37.21
2023-09-10T16:27:59.389Z,37.90
2023-09-10T16:30:29.468Z,36.80
2023-09-10T16:32:58.751Z,36.46
2023-09-10T16:35:28.975Z,38.07
2023-09-10T16:37:56.915Z,37.88
2023-09-10T16:40:24.786Z,37.74
2023-09-10T16:42:52.981Z,36.94
2023-09-10T16:45:20.834Z,37.17
2023-09-10T16:47:48.830Z,37.34
2023-09-10T16:50:18.495Z,38.69
2023-09-10T16:52:47.023Z,38.63
2023-09-10T16:55:15.850Z,38.83
2023-09-10T16:57:56.446Z,38.83
2023-09-10T17:00:24.827Z,38.39
2023-09-10T17:02:55.777Z,38.46
2023-09-10T17:05:29.428Z,39.32
2023-09-10T17:08:04.675Z,39.24
2023-09-10T17:10:38.637Z,40.06
2023-09-10T17:13:06.967Z,39.22
2023-09-10T17:15:37.083Z,39.93
2023-09-10T17:18:05.429Z,41.31
2023-09-10T17:20:35.537Z,41.65
2023-09-10T17:23:03.398Z,41.80
2023-09-10T17:25:31.186Z,41.40
2023-09-10T17:27:59.109Z,41.22
2023-09-10T17:30:27.004Z,42.13
2023-09-10T17:32:58.389Z,42.21
2023-09-10T17:35:29.456Z,42.01
2023-09-10T17:37:58.702Z,42.28
2023-09-10T17:40:27.242Z,42.27
2023-09-10T17:42:55.224Z,42.69
2023-09-10T17:45:23.071Z,43.39
2023-09-10T17:47:51.391Z,43.80
2023-09-10T17:50:19.614Z,44.20
2023-09-10T17:52:47.453Z,43.10
2023-09-10T17:55:16.835Z,43.34
2023-09-10T17:57:44.873Z,43.58
2023-09-10T18:00:13.430Z,44.62
2023-09-10T18:02:41.732Z,44.30
2023-09-10T18:05:10.069Z,44.01
2023-09-10T18:07:38.447Z,44.70
2023-09-10T18:10:07.130Z,45.41
2023-09-10T18:12:36.321Z,45.07
2023-09-10T18:15:04.858Z,45.42
2023-09-10T18:17:34.344Z,45.80
2023-09-10T18:20:04.516Z,46.22
2023-09-10T18:22:32.736Z,47.35
2023-09-10T18:25:01.167Z,47.55
2023-09-10T18:27:29.012Z,47.54
2023-09-10T18:29:58.273Z,46.67
2023-09-10T18:32:26.524Z,47.18
2023-09-10T18:34:54.446Z,46.98
2023-09-10T18:37:24.443Z,46.60
2023-09-10T18:39:52.295Z,47.32
2023-09-10T18:42:20.127Z,48.87
2023-09-10T18:44:48.108Z,48.19
2023-09-10T18:47:17.366Z,47.70
2023-09-10T18:49:45.266Z,46.88
2023-09-10T18:52:15.576Z,47.34
2023-09-10T18:54:44.046Z,48.65
2023-09-10T18:57:14.967Z,49.67
2023-09-10T18:59:43.348Z,48.38
2023-09-10T19:02:11.565Z,49.54
2023-09-10T19:04:41.378Z,48.62
2023-09-10T19:07:11.319Z,48.88
2023-09-10T19:09:39.632Z,48.70
2023-09-10T19:12:07.985Z,50.09
2023-09-10T19:14:35.966Z,49.42
2023-09-10T19:17:03.876Z,48.77
2023-09-10T19:19:32.599Z,49.28
2023-09-10T19:22:02.331Z,49.11
2023-09-10T19:24:30.148Z,49.51
2023-09-10T19:26:58.379Z,48.83
2023-09-10T19:29:26.341Z,49.23
2023-09-10T19:31:56.929Z,49.68
2023-09-10T19:34:25.923Z,50.12
2023-09-10T19:36:53.760Z,50.31
2023-09-10T19:39:30.420Z,50.02
2023-09-10T19:42:02.259Z,50.15
2023-09-10T19:44:33.584Z,50.51
2023-09-10T19:47:03.958Z,50.58
2023-09-10T19:49:35.072Z,50.92
2023-09-10T19:52:03.005Z,51.24
2023-09-10T19:54:32.533Z,53.36
2023-09-10T19:57:01.906Z,55.45
2023-09-10T19:59:32.930Z,55.02
2023-09-10T20:02:00.909Z,53.72
2023-09-10T20:04:29.751Z,55.90
2023-09-10T20:07:01.160Z,54.20
2023-09-10T20:09:30.109Z,53.79
2023-09-10T20:11:59.340Z,53.21
2023-09-10T20:14:31.896Z,53.09
2023-09-10T20:16:59.885Z,52.47
2023-09-10T20:19:32.485Z,53.24
2023-09-10T20:22:03.705Z,52.64
2023-09-10T20:24:34.005Z,52.46
2023-09-10T20:27:04.103Z,52.33
2023-09-10T20:29:34.205Z,52.21
2023-09-10T20:32:02.262Z,52.06
2023-09-10T20:34:30.091Z,53.45
2023-09-10T20:36:57.967Z,52.80
2023-09-10T20:39:25.839Z,52.29
2023-09-10T20:41:56.788Z,53.90
2023-09-10T20:44:26.011Z,55.74
2023-09-10T20:46:54.156Z,54.84
2023-09-10T20:49:22.039Z,54.53
2023-09-10T20:51:51.941Z,53.24
2023-09-10T20:54:19.755Z,53.15
2023-09-10T20:56:47.606Z,52.34
2023-09-10T20:59:15.997Z,52.23
2023-09-10T21:01:45.265Z,52.53
2023-09-10T21:04:13.493Z,53.00
2023-09-10T21:06:42.339Z,54.04
2023-09-10T21:09:10.364Z,53.72
2023-09-10T21:11:40.778Z,54.29
2023-09-10T21:14:11.202Z,57.28
2023-09-10T21:16:39.016Z,55.33
2023-09-10T21:19:08.149Z,56.02
2023-09-10T21:21:36.005Z,54.91
2023-09-10T21:24:09.009Z,58.44
2023-09-10T21:26:36.873Z,58.29
2023-09-10T21:29:04.885Z,58.32
2023-09-10T21:31:32.848Z,58.09
2023-09-10T21:34:00.751Z,60.64
2023-09-10T21:36:29.925Z,57.96
2023-09-10T21:38:57.755Z,55.96
2023-09-10T21:41:25.685Z,57.07
2023-09-10T21:43:53.505Z,57.37
2023-09-10T21:46:21.319Z,57.27
2023-09-10T21:48:49.174Z,57.93
2023-09-10T21:51:17.121Z,58.08
2023-09-10T21:53:47.665Z,57.38
2023-09-10T21:56:17.964Z,56.93
2023-09-10T21:58:45.968Z,58.92
2023-09-10T22:01:14.002Z,57.73
2023-09-10T22:03:42.137Z,56.29
2023-09-10T22:06:10.055Z,57.06
2023-09-10T22:08:37.979Z,59.75
2023-09-10T22:11:07.723Z,58.58
2023-09-10T22:13:35.903Z,58.58
2023-09-10T22:16:03.846Z,57.81
2023-09-10T22:18:31.722Z,56.93
2023-09-10T22:20:59.711Z,59.13
2023-09-10T22:23:27.706Z,59.50
2023-09-10T22:25:55.600Z,60.46
2023-09-10T22:28:25.490Z,58.65
2023-09-10T22:30:53.326Z,61.63
2023-09-10T22:33:21.209Z,62.95
2023-09-10T22:35:49.297Z,61.24
2023-09-10T22:38:17.256Z,61.01
2023-09-10T22:40:45.160Z,60.91
2023-09-10T22:43:13.007Z,58.92
2023-09-10T22:45:42.243Z,58.77
2023-09-10T22:48:10.300Z,57.95
2023-09-10T22:50:38.543Z,58.02
2023-09-10T22:53:06.358Z,58.14
2023-09-10T22:55:36.274Z,59.30
2023-09-10T22:58:06.392Z,60.27
2023-09-10T23:00:34.866Z,62.19
2023-09-10T23:03:08.070Z,62.14
2023-09-10T23:05:36.709Z,62.45
2023-09-10T23:08:05.290Z,65.24
2023-09-10T23:10:33.201Z,64.77
2023-09-10T23:13:00.979Z,65.83
2023-09-10T23:15:29.267Z,62.62
2023-09-10T23:17:57.713Z,62.27
2023-09-10T23:20:26.968Z,64.21
2023-09-10T23:23:00.310Z,63.50
2023-09-10T23:25:28.402Z,64.24
2023-09-10T23:27:56.299Z,63.84
2023-09-10T23:30:24.379Z,63.23
2023-09-10T23:32:52.333Z,63.87
2023-09-10T23:35:20.234Z,65.05
2023-09-10T23:37:49.532Z,66.18
2023-09-10T23:40:17.394Z,66.84
2023-09-10T23:42:46.259Z,68.32
2023-09-10T23:45:14.815Z,67.24
2023-09-10T23:47:42.933Z,66.59
2023-09-10T23:50:11.467Z,65.54
2023-09-10T23:52:39.435Z,63.53
2023-09-10T23:55:09.965Z,61.63
2023-09-10T23:57:37.766Z,63.81
